Time;durP1;ratioP1;P1;durP2;ratioP2;P2;SDS_P1;SDS_P2;PMS_P1;PMS_P2;Temp;Humidity;BMP_temperature;BMP_pressure;BME280_temperature;BME280_humidity;BME280_pressure;Samples;Min_cycle;Max_cycle;Signal;HPM_P1;HPM_P2
2022/07/30 00:01:50;;;;;;;8.93;5.53;;;20.70;61.80;;;;;;5094129;28;20042;-72
2022/07/30 00:04:16;;;;;;;9.38;5.35;;;20.70;62.10;;;;;;5096199;28;20024;-71
2022/07/30 00:06:41;;;;;;;7.15;5.22;;;20.70;62.10;;;;;;5096115;28;20029;-72
2022/07/30 00:09:07;;;;;;;14.27;5.72;;;20.70;62.30;;;;;;5095115;28;20033;-71
2022/07/30 00:11:33;;;;;;;10.05;5.68;;;20.70;62.30;;;;;;5096158;28;20037;-72
2022/07/30 00:13:59;;;;;;;8.35;5.57;;;20.70;62.30;;;;;;5113547;28;20068;-72
2022/07/30 00:16:25;;;;;;;11.18;6.22;;;20.60;62.20;;;;;;5116324;28;20031;-72
2022/07/30 00:18:51;;;;;;;9.32;5.80;;;20.60;62.50;;;;;;5116207;28;20020;-71
2022/07/30 00:21:16;;;;;;;8.05;5.75;;;20.50;62.50;;;;;;5116134;28;20031;-71
2022/07/30 00:23:42;;;;;;;14.07;5.97;;;20.50;62.70;;;;;;5116145;28;20028;-72
2022/07/30 00:26:08;;;;;;;7.38;5.50;;;20.50;62.80;;;;;;5098255;28;20079;-72
2022/07/30 00:28:33;;;;;;;10.68;5.70;;;20.50;62.50;;;;;;5115952;28;20162;-71
2022/07/30 00:31:00;;;;;;;8.68;5.40;;;20.40;62.40;;;;;;5115985;28;20036;-72
2022/07/30 00:33:26;;;;;;;6.70;5.10;;;20.40;62.40;;;;;;5097970;28;20117;-72
2022/07/30 00:35:51;;;;;;;6.80;5.43;;;20.40;62.70;;;;;;5115891;28;20025;-72
2022/07/30 00:38:17;;;;;;;10.45;6.10;;;20.40;63.50;;;;;;5115843;28;20475;-71
2022/07/30 00:40:45;;;;;;;8.98;5.90;;;20.40;62.90;;;;;;5115785;28;20024;-72
2022/07/30 00:43:16;;;;;;;10.02;5.82;;;20.20;63.10;;;;;;5115764;28;20096;-72
2022/07/30 00:45:43;;;;;;;9.88;5.57;;;20.20;63.50;;;;;;5115768;28;20457;-71
2022/07/30 00:48:10;;;;;;;7.88;5.88;;;20.30;63.60;;;;;;5115639;28;20085;-71
2022/07/30 00:50:36;;;;;;;12.80;6.35;;;20.20;63.40;;;;;;5115627;28;20032;-72
2022/07/30 00:53:02;;;;;;;9.27;6.20;;;20.20;63.70;;;;;;5097638;28;20035;-71
2022/07/30 00:55:27;;;;;;;8.73;5.43;;;20.20;64.00;;;;;;5115533;28;20016;-71
2022/07/30 00:57:53;;;;;;;9.82;6.00;;;20.20;64.30;;;;;;5115474;28;20079;-71
2022/07/30 01:00:19;;;;;;;10.77;6.13;;;20.00;64.40;;;;;;5115412;28;20035;-72
2022/07/30 01:02:44;;;;;;;9.60;6.03;;;20.00;64.60;;;;;;5097672;28;20023;-72
2022/07/30 01:05:10;;;;;;;9.35;6.45;;;20.00;65.00;;;;;;5115326;28;20071;-71
2022/07/30 01:07:36;;;;;;;12.15;6.72;;;20.00;65.00;;;;;;5115240;28;20036;-72
2022/07/30 01:10:03;;;;;;;10.45;5.88;;;20.00;65.30;;;;;;5097383;28;20099;-72
2022/07/30 01:12:30;;;;;;;9.48;6.07;;;19.90;65.50;;;;;;5114085;28;20048;-72
2022/07/30 01:14:58;;;;;;;13.13;6.13;;;19.90;66.00;;;;;;5114853;28;20017;-72
2022/07/30 01:17:24;;;;;;;12.15;6.60;;;19.90;66.40;;;;;;5115078;28;20076;-72
2022/07/30 01:19:54;;;;;;;13.38;6.60;;;19.80;67.40;;;;;;5115022;28;20042;-72
2022/07/30 01:22:29;;;;;;;10.48;5.93;;;19.70;66.80;;;;;;5114994;28;20024;-72
2022/07/30 01:25:27;;;;;;;11.80;6.03;;;19.70;67.20;;;;;;5114916;28;20084;-71
2022/07/30 01:27:58;;;;;;;12.18;5.80;;;19.80;67.50;;;;;;5059753;28;20046;-72
2022/07/30 01:30:27;;;;;;;11.02;6.20;;;19.80;68.30;;;;;;5114851;28;20026;-72
2022/07/30 01:32:55;;;;;;;12.68;6.05;;;19.80;67.10;;;;;;5114718;28;20035;-71
2022/07/30 01:35:23;;;;;;;9.45;6.13;;;19.80;67.00;;;;;;5096750;28;20024;-71
2022/07/30 01:37:50;;;;;;;9.50;6.00;;;19.70;67.30;;;;;;5096766;28;20020;-72
2022/07/30 01:40:17;;;;;;;8.98;5.75;;;19.70;67.30;;;;;;5114625;28;20054;-72
2022/07/30 01:42:44;;;;;;;7.22;5.63;;;19.70;68.30;;;;;;5114729;28;20078;-72
2022/07/30 01:45:12;;;;;;;10.07;6.03;;;19.70;67.40;;;;;;5114554;28;20028;-72
2022/07/30 01:47:39;;;;;;;10.10;6.53;;;19.70;67.10;;;;;;5114469;28;20028;-72
2022/07/30 01:50:08;;;;;;;10.77;6.63;;;19.60;68.10;;;;;;5114471;28;20026;-72
2022/07/30 01:52:36;;;;;;;10.02;6.32;;;19.60;67.40;;;;;;5114308;28;20039;-72
2022/07/30 01:55:03;;;;;;;9.65;6.32;;;19.60;67.40;;;;;;5096362;28;20020;-72
2022/07/30 01:57:30;;;;;;;12.55;6.57;;;19.50;67.30;;;;;;5096331;28;20024;-71
2022/07/30 02:00:00;;;;;;;9.75;6.80;;;19.40;67.50;;;;;;5096291;28;20024;-72
2022/07/30 02:02:26;;;;;;;11.93;6.50;;;19.40;67.90;;;;;;5096269;28;20545;-72
2022/07/30 02:04:52;;;;;;;9.38;6.82;;;19.40;67.90;;;;;;5114193;28;20020;-72
2022/07/30 02:07:26;;;;;;;11.15;7.13;;;19.40;68.20;;;;;;5114116;28;20041;-72
2022/07/30 02:10:02;;;;;;;13.80;6.60;;;19.40;68.10;;;;;;5114303;28;20028;-72
2022/07/30 02:12:31;;;;;;;12.90;6.50;;;19.40;67.90;;;;;;5113887;28;20040;-72
2022/07/30 02:15:09;;;;;;;12.20;6.82;;;19.30;67.80;;;;;;5113976;28;20027;-72
2022/07/30 02:17:41;;;;;;;10.77;6.18;;;19.20;68.00;;;;;;5114168;28;20039;-72
2022/07/30 02:20:10;;;;;;;9.77;6.32;;;19.10;68.30;;;;;;5113940;28;20050;-72
2022/07/30 02:22:39;;;;;;;9.98;6.13;;;19.10;68.70;;;;;;5113898;28;20049;-72
2022/07/30 02:25:07;;;;;;;9.93;6.55;;;19.10;68.70;;;;;;5113502;28;20027;-72
2022/07/30 02:27:37;;;;;;;9.52;6.20;;;19.10;68.30;;;;;;5113840;28;20020;-72
2022/07/30 02:30:03;;;;;;;9.45;6.40;;;19.20;68.40;;;;;;5113723;28;20045;-72
2022/07/30 02:32:34;;;;;;;10.48;6.20;;;19.10;68.40;;;;;;5113703;28;20087;-72
2022/07/30 02:35:09;;;;;;;8.57;6.00;;;19.10;68.70;;;;;;5095799;28;20023;-72
2022/07/30 02:37:36;;;;;;;10.45;6.60;;;19.10;69.00;;;;;;5113722;28;20020;-72
2022/07/30 02:40:02;;;;;;;12.98;6.72;;;19.10;68.90;;;;;;5113675;28;20046;-72
2022/07/30 02:42:29;;;;;;;9.05;6.43;;;19.00;69.00;;;;;;5095852;28;20024;-72
2022/07/30 02:44:57;;;;;;;10.10;5.85;;;18.80;69.70;;;;;;5113584;28;20107;-72
2022/07/30 02:47:23;;;;;;;9.18;6.22;;;18.90;69.80;;;;;;5113576;28;20031;-72
2022/07/30 02:49:51;;;;;;;9.77;6.18;;;19.00;69.60;;;;;;5095826;28;20060;-72
2022/07/30 02:52:17;;;;;;;9.27;6.50;;;19.00;69.40;;;;;;5113443;28;20046;-72
2022/07/30 02:54:44;;;;;;;10.45;6.50;;;19.00;69.60;;;;;;5113547;28;20091;-72
2022/07/30 02:57:10;;;;;;;10.85;7.13;;;18.90;69.70;;;;;;5113512;28;20017;-72
2022/07/30 02:59:40;;;;;;;8.60;5.82;;;18.80;69.60;;;;;;5113437;28;20047;-72
2022/07/30 03:02:07;;;;;;;9.18;6.43;;;18.90;69.80;;;;;;5113399;28;20021;-72
2022/07/30 03:04:34;;;;;;;8.88;6.22;;;18.90;69.60;;;;;;5113455;28;20113;-72
2022/07/30 03:07:00;;;;;;;8.30;6.22;;;18.70;69.60;;;;;;5113417;28;20023;-72
2022/07/30 03:09:28;;;;;;;12.05;6.72;;;18.70;69.70;;;;;;5095424;28;20069;-72
2022/07/30 03:11:55;;;;;;;12.65;6.68;;;18.80;69.60;;;;;;5113379;28;20077;-72
2022/07/30 03:14:20;;;;;;;10.40;6.90;;;18.80;69.60;;;;;;5113087;28;20055;-72
2022/07/30 03:16:52;;;;;;;11.07;6.32;;;18.80;69.70;;;;;;5113301;28;20028;-72
2022/07/30 03:19:21;;;;;;;10.77;7.10;;;18.90;69.60;;;;;;5113355;28;20382;-72
2022/07/30 03:21:49;;;;;;;10.57;7.13;;;18.80;69.70;;;;;;5113248;28;20023;-72
2022/07/30 03:24:16;;;;;;;12.50;6.50;;;18.70;69.80;;;;;;5113239;28;20024;-72
2022/07/30 03:26:44;;;;;;;9.60;7.10;;;18.70;70.80;;;;;;5113200;28;20020;-72
2022/07/30 03:29:12;;;;;;;10.48;6.88;;;18.60;70.00;;;;;;5113103;28;20047;-72
2022/07/30 03:31:39;;;;;;;11.05;6.78;;;18.60;70.90;;;;;;5113176;28;20016;-72
2022/07/30 03:34:06;;;;;;;9.30;6.68;;;18.70;69.80;;;;;;5113110;28;20028;-72
2022/07/30 03:36:32;;;;;;;11.10;6.43;;;18.80;69.60;;;;;;5114312;28;20076;-72
2022/07/30 03:38:58;;;;;;;9.00;6.28;;;18.70;69.70;;;;;;5117031;28;20028;-71
2022/07/30 03:41:25;;;;;;;10.35;6.40;;;18.70;69.30;;;;;;5116993;28;20020;-72
2022/07/30 03:43:52;;;;;;;11.15;6.00;;;18.60;69.30;;;;;;5098988;28;20020;-72
2022/07/30 03:46:18;;;;;;;9.35;6.38;;;18.50;69.50;;;;;;5098872;28;20479;-72
2022/07/30 03:48:44;;;;;;;10.00;6.30;;;18.40;69.50;;;;;;5098827;28;20043;-72
2022/07/30 03:51:10;;;;;;;10.98;6.75;;;18.30;69.80;;;;;;5098790;28;20035;-72
2022/07/30 03:53:38;;;;;;;10.55;6.20;;;18.30;70.00;;;;;;5116645;28;20036;-72
2022/07/30 03:56:05;;;;;;;11.73;6.63;;;18.30;69.80;;;;;;5116693;28;20024;-72
2022/07/30 03:58:31;;;;;;;8.65;5.90;;;18.30;69.70;;;;;;5098715;28;20031;-72
2022/07/30 04:00:57;;;;;;;11.50;6.15;;;18.40;69.70;;;;;;5116583;28;20028;-72
2022/07/30 04:03:26;;;;;;;11.98;6.45;;;18.40;69.70;;;;;;5116560;28;20070;-72
2022/07/30 04:05:52;;;;;;;9.95;5.97;;;18.40;69.60;;;;;;5116506;28;20033;-72
2022/07/30 04:08:17;;;;;;;11.07;6.28;;;18.40;69.60;;;;;;5116491;28;20028;-72
2022/07/30 04:10:43;;;;;;;10.48;6.43;;;18.40;69.60;;;;;;5098436;28;20028;-71
2022/07/30 04:13:09;;;;;;;11.50;6.22;;;18.30;69.50;;;;;;5116123;28;20104;-72
2022/07/30 04:16:10;;;;;;;11.63;6.30;;;18.30;69.50;;;;;;5116317;28;20039;-72
2022/07/30 04:18:43;;;;;;;9.95;6.00;;;18.30;69.80;;;;;;5111227;28;20111;-72
2022/07/30 04:21:10;;;;;;;12.98;6.70;;;18.30;69.50;;;;;;5116222;28;20054;-72
2022/07/30 04:23:38;;;;;;;10.70;6.45;;;18.30;69.60;;;;;;5116311;28;20063;-72
2022/07/30 04:26:04;;;;;;;8.77;6.30;;;18.20;69.60;;;;;;5116084;28;20079;-72
2022/07/30 04:28:29;;;;;;;9.13;6.65;;;18.10;70.00;;;;;;5098239;28;20032;-72
2022/07/30 04:30:55;;;;;;;11.10;6.97;;;18.10;70.40;;;;;;5115996;28;20032;-72
2022/07/30 04:33:21;;;;;;;13.27;6.38;;;18.10;70.40;;;;;;5115886;28;20035;-72
2022/07/30 04:35:47;;;;;;;10.98;6.88;;;18.10;70.50;;;;;;5115904;28;20016;-72
2022/07/30 04:38:13;;;;;;;15.23;7.20;;;18.10;70.70;;;;;;5115897;28;20020;-72
2022/07/30 04:40:42;;;;;;;13.13;7.65;;;18.10;70.80;;;;;;5097925;28;20024;-72
2022/07/30 04:43:07;;;;;;;12.55;7.00;;;18.10;71.10;;;;;;5115759;28;20467;-72
2022/07/30 04:45:34;;;;;;;13.43;7.30;;;18.10;71.20;;;;;;5097877;28;20032;-72
2022/07/30 04:48:00;;;;;;;12.27;7.40;;;18.10;71.40;;;;;;5097850;28;20430;-72
2022/07/30 04:50:27;;;;;;;13.95;8.32;;;18.00;71.70;;;;;;5081053;28;20032;-72
2022/07/30 04:52:54;;;;;;;12.13;7.72;;;18.00;72.00;;;;;;5115528;28;20031;-72
2022/07/30 04:55:22;;;;;;;15.18;7.60;;;18.00;72.10;;;;;;5115553;28;20031;-72
2022/07/30 04:57:50;;;;;;;13.10;7.72;;;17.90;72.10;;;;;;5115504;28;20046;-72
2022/07/30 05:00:16;;;;;;;11.90;8.07;;;18.00;72.10;;;;;;5097526;28;20016;-72
2022/07/30 05:02:44;;;;;;;13.98;8.50;;;18.00;72.40;;;;;;5097416;28;20085;-72
2022/07/30 05:05:13;;;;;;;12.20;8.00;;;18.00;72.40;;;;;;5115380;28;20105;-72
2022/07/30 05:07:38;;;;;;;12.55;8.15;;;18.00;72.50;;;;;;5097401;28;20020;-72
2022/07/30 05:10:05;;;;;;;13.15;7.88;;;18.00;72.60;;;;;;5115257;28;20035;-72
2022/07/30 05:12:38;;;;;;;13.10;8.35;;;18.10;72.70;;;;;;5097039;28;20048;-72
2022/07/30 05:15:06;;;;;;;11.80;8.15;;;18.00;72.70;;;;;;5097306;28;20024;-72
2022/07/30 05:17:32;;;;;;;14.90;8.73;;;18.00;73.00;;;;;;5097162;28;20028;-72
2022/07/30 05:19:58;;;;;;;15.35;8.60;;;18.00;73.20;;;;;;5097168;28;20051;-72
2022/07/30 05:22:26;;;;;;;14.32;9.63;;;18.00;73.30;;;;;;5115020;28;20024;-72
2022/07/30 05:24:52;;;;;;;16.88;9.25;;;17.90;73.60;;;;;;5114949;28;20016;-72
2022/07/30 05:27:19;;;;;;;13.63;9.65;;;18.00;74.10;;;;;;5114933;28;20024;-72
2022/07/30 05:29:45;;;;;;;20.33;10.00;;;18.00;74.10;;;;;;5114834;28;20043;-72
2022/07/30 05:32:11;;;;;;;15.75;9.95;;;18.00;74.50;;;;;;5096826;28;20020;-72
2022/07/30 05:34:37;;;;;;;18.75;10.27;;;18.00;75.00;;;;;;5096762;28;20130;-72
2022/07/30 05:37:02;;;;;;;17.88;10.52;;;18.00;74.80;;;;;;5114749;28;20051;-72
2022/07/30 05:39:28;;;;;;;17.13;10.55;;;17.90;75.30;;;;;;5114662;28;20029;-72
2022/07/30 05:41:54;;;;;;;19.83;11.88;;;17.90;75.40;;;;;;5096663;28;20031;-72
2022/07/30 05:44:20;;;;;;;16.08;10.57;;;18.00;75.10;;;;;;5114626;28;20039;-72
2022/07/30 05:46:45;;;;;;;17.27;10.85;;;18.10;74.90;;;;;;5096623;28;20055;-72
2022/07/30 05:49:11;;;;;;;20.00;11.10;;;18.10;75.00;;;;;;5114522;28;20035;-72
2022/07/30 05:51:37;;;;;;;16.17;10.98;;;18.20;74.70;;;;;;5114598;28;20036;-72
2022/07/30 05:54:03;;;;;;;18.63;11.43;;;18.20;75.00;;;;;;5114335;28;20028;-71
2022/07/30 05:56:28;;;;;;;17.80;11.57;;;18.20;75.90;;;;;;5114343;28;20035;-72
2022/07/30 05:58:54;;;;;;;16.70;10.95;;;18.20;75.10;;;;;;5113691;28;20031;-72
2022/07/30 06:01:19;;;;;;;18.42;11.70;;;18.20;75.20;;;;;;5114302;28;20020;-72
2022/07/30 06:03:45;;;;;;;18.30;12.05;;;18.30;75.20;;;;;;5114359;28;20459;-72
2022/07/30 06:06:11;;;;;;;18.85;10.95;;;18.30;75.50;;;;;;5114200;28;20024;-73
2022/07/30 06:08:37;;;;;;;17.75;11.23;;;18.30;76.20;;;;;;5114136;28;20031;-72
2022/07/30 06:11:03;;;;;;;19.35;12.20;;;18.40;75.50;;;;;;5114132;28;20028;-71
2022/07/30 06:13:28;;;;;;;22.23;11.57;;;18.40;75.80;;;;;;5113557;28;20048;-71
2022/07/30 06:15:54;;;;;;;19.65;11.23;;;18.40;76.00;;;;;;5113879;28;20025;-71
2022/07/30 06:18:20;;;;;;;15.95;11.38;;;18.50;75.90;;;;;;5113987;28;20025;-72
2022/07/30 06:20:46;;;;;;;17.08;10.70;;;18.60;75.70;;;;;;5113971;28;20568;-71
2022/07/30 06:23:11;;;;;;;17.70;10.48;;;18.60;75.70;;;;;;5096203;28;20028;-71
2022/07/30 06:25:37;;;;;;;18.10;11.50;;;18.70;75.60;;;;;;5113815;28;20032;-71
2022/07/30 06:28:03;;;;;;;20.17;11.68;;;18.60;75.70;;;;;;5113748;28;20066;-71
2022/07/30 06:30:28;;;;;;;17.02;10.80;;;18.70;75.50;;;;;;5095755;28;20032;-71
2022/07/30 06:32:54;;;;;;;17.35;10.38;;;18.70;75.40;;;;;;5113698;28;20041;-71
2022/07/30 06:35:20;;;;;;;19.77;11.60;;;18.80;75.10;;;;;;5113872;28;20050;-71
2022/07/30 06:37:45;;;;;;;17.00;10.45;;;18.90;75.20;;;;;;5095792;28;20032;-71
2022/07/30 06:40:12;;;;;;;16.90;11.02;;;19.00;75.00;;;;;;5095819;28;20032;-71
2022/07/30 06:42:37;;;;;;;23.65;11.95;;;19.00;75.10;;;;;;5113553;28;20024;-71
2022/07/30 06:45:04;;;;;;;16.77;11.20;;;19.10;75.50;;;;;;5113639;28;20051;-71
2022/07/30 06:47:30;;;;;;;14.52;10.30;;;19.10;75.10;;;;;;5113572;28;20024;-71
2022/07/30 06:49:56;;;;;;;16.92;10.20;;;19.20;75.30;;;;;;5113547;28;20027;-70
2022/07/30 06:52:22;;;;;;;16.80;9.63;;;19.20;74.90;;;;;;5095685;28;20024;-71
2022/07/30 06:54:48;;;;;;;16.35;8.88;;;19.30;74.80;;;;;;5113507;28;20036;-70
2022/07/30 06:57:14;;;;;;;15.98;8.75;;;19.30;74.30;;;;;;5113531;28;20046;-71
2022/07/30 06:59:40;;;;;;;14.18;9.23;;;19.20;74.10;;;;;;5095591;28;20020;-71
2022/07/30 07:02:06;;;;;;;14.77;8.77;;;19.30;74.20;;;;;;5095646;28;20020;-71
2022/07/30 07:04:32;;;;;;;13.32;8.98;;;19.30;74.40;;;;;;5113459;28;20475;-70
2022/07/30 07:06:57;;;;;;;12.77;7.53;;;19.30;73.80;;;;;;5113360;28;20032;-70
2022/07/30 07:09:23;;;;;;;14.25;8.00;;;19.40;73.70;;;;;;5113414;28;20028;-70
2022/07/30 07:11:49;;;;;;;13.73;7.55;;;19.50;73.50;;;;;;5116848;28;20087;-71
2022/07/30 07:14:14;;;;;;;14.98;8.05;;;19.50;73.20;;;;;;5117259;28;20056;-70
2022/07/30 07:16:40;;;;;;;12.88;8.40;;;19.50;73.10;;;;;;5117485;28;20031;-71
2022/07/30 07:19:05;;;;;;;14.50;8.50;;;19.50;73.00;;;;;;5117416;28;20053;-70
2022/07/30 07:21:31;;;;;;;12.70;8.23;;;19.50;72.90;;;;;;5117329;28;20033;-70
2022/07/30 07:23:59;;;;;;;16.67;8.40;;;19.60;72.90;;;;;;5117297;28;20036;-71
2022/07/30 07:26:24;;;;;;;14.02;7.50;;;19.60;72.90;;;;;;5082847;28;20031;-70
2022/07/30 07:28:50;;;;;;;10.50;6.95;;;19.70;72.70;;;;;;5117133;28;20036;-70
2022/07/30 07:31:16;;;;;;;10.98;7.07;;;19.70;72.10;;;;;;5117340;28;20048;-70
2022/07/30 07:33:42;;;;;;;10.95;6.82;;;19.70;71.80;;;;;;5099157;28;20039;-71
2022/07/30 07:36:07;;;;;;;12.05;6.32;;;19.70;71.50;;;;;;5117231;28;20024;-71
2022/07/30 07:38:33;;;;;;;9.75;6.32;;;19.70;71.40;;;;;;5099184;28;20032;-71
2022/07/30 07:40:59;;;;;;;8.80;5.85;;;19.70;71.40;;;;;;5098999;28;20122;-71
2022/07/30 07:43:25;;;;;;;11.40;5.72;;;19.80;70.70;;;;;;5098976;28;20077;-71
2022/07/30 07:45:50;;;;;;;12.07;5.90;;;19.80;69.90;;;;;;5098928;28;20074;-71
2022/07/30 07:48:17;;;;;;;14.60;6.85;;;19.90;69.30;;;;;;5098947;28;20052;-71
2022/07/30 07:50:43;;;;;;;12.73;6.85;;;20.00;69.10;;;;;;5116794;28;20043;-71
2022/07/30 07:53:09;;;;;;;13.23;6.53;;;20.10;69.30;;;;;;5098889;28;20036;-71
2022/07/30 07:55:34;;;;;;;12.23;7.72;;;20.20;69.40;;;;;;5116683;28;20023;-71
2022/07/30 07:58:00;;;;;;;10.10;7.20;;;20.30;69.30;;;;;;5116652;28;20024;-71
2022/07/30 08:00:26;;;;;;;11.63;7.45;;;20.20;67.90;;;;;;5116557;28;20113;-71
2022/07/30 08:02:51;;;;;;;9.93;8.15;;;20.20;67.90;;;;;;5116585;28;20024;-71
2022/07/30 08:05:17;;;;;;;14.68;9.20;;;20.20;66.90;;;;;;5116496;28;20032;-71
2022/07/30 08:07:44;;;;;;;10.70;8.55;;;20.30;67.10;;;;;;5116537;28;20103;-71
2022/07/30 08:10:12;;;;;;;13.25;9.45;;;20.40;66.70;;;;;;5116431;28;20020;-71
2022/07/30 08:12:38;;;;;;;12.48;9.05;;;20.50;66.90;;;;;;5094865;28;20081;-71
2022/07/30 08:15:05;;;;;;;12.00;8.82;;;20.60;66.60;;;;;;5096040;28;20025;-71
2022/07/30 08:17:30;;;;;;;11.88;9.18;;;20.70;66.20;;;;;;5095958;28;20056;-70
2022/07/30 08:20:00;;;;;;;13.30;8.63;;;20.80;66.00;;;;;;5095891;28;20037;-71
2022/07/30 08:22:26;;;;;;;8.07;6.57;;;20.80;66.00;;;;;;5095249;28;20025;-71
2022/07/30 08:24:52;;;;;;;8.43;5.53;;;20.90;65.20;;;;;;5078192;28;20021;-71
2022/07/30 08:27:18;;;;;;;9.43;5.78;;;21.00;64.30;;;;;;5095816;28;20031;-71
2022/07/30 08:29:44;;;;;;;8.65;5.57;;;21.10;64.00;;;;;;5095535;28;20040;-71
2022/07/30 08:32:09;;;;;;;9.63;5.70;;;21.10;63.60;;;;;;5095664;28;20080;-71
2022/07/30 08:34:35;;;;;;;8.27;5.63;;;21.20;63.10;;;;;;5094686;28;20032;-71
2022/07/30 08:37:01;;;;;;;9.88;5.68;;;21.20;63.00;;;;;;5095653;28;20048;-71
2022/07/30 08:39:26;;;;;;;9.30;5.45;;;21.20;63.00;;;;;;5095560;28;20025;-71
2022/07/30 08:41:52;;;;;;;7.63;5.93;;;21.20;63.60;;;;;;5095599;28;20080;-71
2022/07/30 08:44:20;;;;;;;11.07;6.05;;;21.30;62.70;;;;;;5094537;28;20050;-70
2022/07/30 08:46:47;;;;;;;7.45;4.75;;;21.40;62.60;;;;;;5095439;28;20020;-71
2022/07/30 08:49:14;;;;;;;6.47;3.53;;;21.40;62.40;;;;;;5095410;28;20029;-71
2022/07/30 08:51:40;;;;;;;6.18;4.20;;;21.40;61.50;;;;;;5095362;28;20024;-70
2022/07/30 08:54:06;;;;;;;7.07;4.22;;;21.30;61.10;;;;;;5095239;28;20035;-70
2022/07/30 08:56:33;;;;;;;8.63;4.88;;;21.40;60.90;;;;;;5095269;28;20025;-71
2022/07/30 08:59:00;;;;;;;9.52;5.20;;;21.40;61.30;;;;;;5095246;28;20032;-71
2022/07/30 09:01:25;;;;;;;6.63;4.93;;;21.40;60.50;;;;;;5094390;28;20017;-71
2022/07/30 09:03:51;;;;;;;11.52;6.25;;;21.50;60.70;;;;;;5094343;28;20440;-71
2022/07/30 09:06:17;;;;;;;7.55;5.10;;;21.60;60.70;;;;;;5094010;28;20040;-71
2022/07/30 09:08:43;;;;;;;8.07;3.60;;;21.70;60.80;;;;;;5094081;28;20088;-71
2022/07/30 09:11:08;;;;;;;6.93;3.78;;;21.80;59.90;;;;;;5094976;28;20112;-71
2022/07/30 09:13:38;;;;;;;7.15;4.75;;;21.80;59.40;;;;;;5106662;28;20074;-71
2022/07/30 09:16:04;;;;;;;7.68;5.18;;;21.80;59.50;;;;;;5115163;28;20038;-70
2022/07/30 09:18:38;;;;;;;8.00;4.10;;;21.80;58.80;;;;;;5115141;28;20008;-71
2022/07/30 09:21:23;;;;;;;10.02;4.22;;;21.90;58.90;;;;;;5097135;28;20042;-71
2022/07/30 09:24:04;;;;;;;6.35;3.78;;;21.90;59.40;;;;;;5115147;28;20020;-71
2022/07/30 09:26:31;;;;;;;4.68;2.92;;;21.90;58.80;;;;;;5114802;28;20051;-71
2022/07/30 09:29:18;;;;;;;7.55;3.13;;;22.00;59.10;;;;;;5096911;28;20036;-71
2022/07/30 09:32:01;;;;;;;5.50;2.67;;;22.10;58.60;;;;;;5115013;28;20103;-71
2022/07/30 09:34:33;;;;;;;4.35;2.83;;;22.20;58.70;;;;;;5113770;28;20031;-71
2022/07/30 09:37:23;;;;;;;6.78;3.00;;;22.30;58.60;;;;;;5108426;28;20026;-71
2022/07/30 09:39:48;;;;;;;5.05;2.67;;;22.30;56.70;;;;;;5096136;28;20032;-71
2022/07/30 09:42:18;;;;;;;4.95;2.70;;;22.30;57.30;;;;;;5096903;28;20032;-70
2022/07/30 09:44:44;;;;;;;6.97;3.03;;;22.40;57.10;;;;;;5114643;28;20032;-70
2022/07/30 09:47:32;;;;;;;5.72;2.58;;;22.40;57.00;;;;;;5114584;28;20013;-71
2022/07/30 09:50:11;;;;;;;6.47;2.63;;;22.40;57.10;;;;;;5114565;28;20040;-70
2022/07/30 09:52:38;;;;;;;5.05;2.97;;;22.50;57.20;;;;;;5096499;28;20028;-70
2022/07/30 09:55:31;;;;;;;6.13;2.55;;;22.50;58.00;;;;;;5131602;27;20394;-69
2022/07/30 09:58:00;;;;;;;5.40;2.83;;;22.70;57.40;;;;;;5131437;28;20041;-70
2022/07/30 10:00:27;;;;;;;4.18;2.90;;;22.80;58.20;;;;;;5131348;28;20072;-69
2022/07/30 10:02:54;;;;;;;5.25;2.53;;;22.70;55.20;;;;;;5131441;28;20020;-69
2022/07/30 10:05:20;;;;;;;8.75;2.50;;;22.70;55.20;;;;;;5131234;28;20023;-69
2022/07/30 10:07:53;;;;;;;3.58;2.20;;;22.80;55.10;;;;;;5131144;28;20031;-68
2022/07/30 10:10:22;;;;;;;4.05;2.08;;;22.80;54.50;;;;;;5131202;28;20031;-69
2022/07/30 10:12:53;;;;;;;6.13;2.38;;;22.80;54.40;;;;;;5131047;28;20020;-69
2022/07/30 10:15:23;;;;;;;6.97;2.58;;;23.00;54.10;;;;;;5130124;28;20073;-69
2022/07/30 10:17:49;;;;;;;7.40;2.90;;;23.00;52.80;;;;;;5130109;28;20020;-69
2022/07/30 10:20:15;;;;;;;4.97;2.42;;;23.10;54.30;;;;;;5130981;28;20017;-69
2022/07/30 10:22:43;;;;;;;4.07;2.20;;;23.20;53.00;;;;;;5130913;28;20027;-68
2022/07/30 10:25:09;;;;;;;4.55;2.17;;;23.30;52.70;;;;;;5130882;28;20016;-69
2022/07/30 10:27:35;;;;;;;4.63;2.17;;;23.50;52.20;;;;;;5130962;28;20024;-69
2022/07/30 10:30:01;;;;;;;3.75;2.45;;;23.50;52.30;;;;;;5130744;28;20048;-68
2022/07/30 10:32:27;;;;;;;4.47;2.40;;;23.60;52.50;;;;;;5129743;28;20016;-68
2022/07/30 10:34:53;;;;;;;4.85;2.20;;;23.70;52.00;;;;;;5130635;28;20050;-69
2022/07/30 10:37:21;;;;;;;5.85;2.15;;;23.70;52.00;;;;;;5129778;28;20024;-69
2022/07/30 10:39:55;;;;;;;5.30;2.75;;;23.70;50.80;;;;;;5130621;28;20482;-69
2022/07/30 10:42:46;;;;;;;3.88;2.33;;;23.70;50.90;;;;;;5129593;28;20486;-69
2022/07/30 10:45:22;;;;;;;4.13;2.13;;;23.80;51.90;;;;;;5129527;28;20074;-69
2022/07/30 10:47:50;;;;;;;5.57;2.50;;;24.00;51.10;;;;;;5130652;28;20027;-68
2022/07/30 10:50:18;;;;;;;3.15;2.10;;;24.00;51.70;;;;;;5130429;28;20030;-69
2022/07/30 10:52:49;;;;;;;4.13;2.35;;;24.00;50.10;;;;;;5130286;28;20020;-69
2022/07/30 10:55:17;;;;;;;6.38;2.60;;;24.10;50.40;;;;;;5130510;28;20034;-68
2022/07/30 10:58:03;;;;;;;4.65;2.33;;;24.00;49.40;;;;;;5130258;28;20023;-69
2022/07/30 11:00:31;;;;;;;5.13;2.13;;;24.10;50.10;;;;;;5130210;28;20102;-69
2022/07/30 11:03:22;;;;;;;3.22;2.40;;;24.10;50.30;;;;;;5130197;28;20053;-69
2022/07/30 11:05:50;;;;;;;4.80;2.70;;;24.30;48.90;;;;;;5120780;28;20046;-68
2022/07/30 11:08:34;;;;;;;2.97;2.33;;;24.30;48.70;;;;;;5115479;28;20019;-69
2022/07/30 11:11:00;;;;;;;3.50;2.40;;;24.40;50.40;;;;;;5116396;28;20024;-69
2022/07/30 11:13:56;;;;;;;4.78;2.40;;;24.50;50.20;;;;;;5116338;28;20032;-69
2022/07/30 11:16:32;;;;;;;3.85;1.92;;;24.60;48.90;;;;;;5116274;28;20042;-69
2022/07/30 11:19:19;;;;;;;2.75;1.73;;;24.60;48.50;;;;;;5115242;28;20024;-69
2022/07/30 11:21:46;;;;;;;6.10;1.90;;;24.70;47.30;;;;;;5116197;28;20023;-69
2022/07/30 11:24:44;;;;;;;3.70;1.48;;;24.80;48.00;;;;;;5116147;28;20020;-69
2022/07/30 11:27:32;;;;;;;2.90;1.73;;;24.90;47.10;;;;;;5116048;28;20031;-69
2022/07/30 11:29:58;;;;;;;3.25;1.70;;;25.00;46.70;;;;;;5116107;28;20028;-69
2022/07/30 11:32:32;;;;;;;3.78;2.08;;;25.10;47.40;;;;;;5115935;28;20036;-69
2022/07/30 11:35:18;;;;;;;3.03;1.60;;;25.30;46.80;;;;;;5114832;28;20092;-71
2022/07/30 11:37:56;;;;;;;2.55;1.80;;;25.40;45.40;;;;;;5116076;28;20017;-71
2022/07/30 11:40:24;;;;;;;1.92;1.58;;;25.50;46.30;;;;;;5115817;28;20034;-69
2022/07/30 11:42:50;;;;;;;4.50;1.67;;;25.50;45.00;;;;;;5115812;28;20099;-71
2022/07/30 11:45:21;;;;;;;3.83;1.70;;;25.60;45.60;;;;;;5115716;28;20024;-71
2022/07/30 11:47:55;;;;;;;2.45;1.60;;;25.70;45.20;;;;;;5115723;28;20027;-71
2022/07/30 11:50:30;;;;;;;4.55;1.67;;;25.80;45.20;;;;;;5115658;28;20020;-71
2022/07/30 11:53:05;;;;;;;2.78;1.52;;;25.90;44.60;;;;;;5115355;28;20020;-71
2022/07/30 11:55:32;;;;;;;4.32;1.77;;;25.90;43.70;;;;;;5115669;28;20024;-69
2022/07/30 11:58:01;;;;;;;3.17;1.60;;;26.00;44.40;;;;;;5115500;28;20031;-69
2022/07/30 12:00:46;;;;;;;3.25;1.73;;;26.10;44.50;;;;;;5115408;28;20016;-68
2022/07/30 12:03:20;;;;;;;3.63;1.50;;;26.20;43.60;;;;;;5114428;28;20058;-68
2022/07/30 12:05:47;;;;;;;2.50;1.50;;;26.20;44.20;;;;;;5115322;28;20032;-69
2022/07/30 12:08:14;;;;;;;3.15;1.65;;;26.20;43.30;;;;;;5115289;28;20024;-68
2022/07/30 12:10:41;;;;;;;3.03;1.70;;;26.30;43.90;;;;;;5115241;28;20024;-69
2022/07/30 12:13:12;;;;;;;2.50;1.58;;;26.40;43.90;;;;;;5114167;28;20036;-69
2022/07/30 12:15:40;;;;;;;2.47;1.83;;;26.50;43.10;;;;;;5115309;28;20046;-68
2022/07/30 12:18:06;;;;;;;2.92;1.50;;;26.50;42.80;;;;;;5114133;28;20055;-68
2022/07/30 12:20:33;;;;;;;3.70;1.70;;;26.60;44.10;;;;;;5115211;28;20065;-69
2022/07/30 12:22:58;;;;;;;3.55;1.80;;;26.70;44.60;;;;;;5114978;28;20039;-68
2022/07/30 12:25:25;;;;;;;2.28;1.42;;;26.90;43.60;;;;;;5114948;28;20028;-68
2022/07/30 12:27:51;;;;;;;2.92;1.65;;;26.90;43.30;;;;;;5114813;28;20012;-70
2022/07/30 12:30:17;;;;;;;4.15;1.88;;;27.00;43.30;;;;;;5114856;28;20016;-71
2022/07/30 12:32:44;;;;;;;3.22;1.73;;;27.10;43.50;;;;;;5113910;28;20031;-71
2022/07/30 12:35:10;;;;;;;4.07;1.75;;;27.00;43.10;;;;;;5114653;28;20027;-68
2022/07/30 12:37:37;;;;;;;3.53;1.80;;;27.10;43.20;;;;;;5114709;28;20032;-69
2022/07/30 12:40:11;;;;;;;6.35;1.98;;;27.10;43.80;;;;;;5113715;28;20020;-69
2022/07/30 12:42:51;;;;;;;3.97;1.80;;;26.90;42.90;;;;;;5114631;28;20030;-68
2022/07/30 12:45:28;;;;;;;2.70;1.83;;;26.80;43.40;;;;;;5113534;28;20047;-71
2022/07/30 12:47:54;;;;;;;3.17;1.83;;;26.70;42.90;;;;;;5114522;28;20024;-71